Time;durP1;ratioP1;P1;durP2;ratioP2;P2;SDS_P1;SDS_P2;PMS_P1;PMS_P2;Temp;Humidity;BMP_temperature;BMP_pressure;BME280_temperature;BME280_humidity;BME280_pressure;Samples;Min_cycle;Max_cycle;Signal;HPM_P1;HPM_P2
2022/08/29 00:01:47;;;;;;;10.90;9.90;;;18.00;99.90;;;;;;6249587;23;20151;-45
2022/08/29 00:04:13;;;;;;;10.93;10.03;;;18.10;99.90;;;;;;6247668;23;20157;-45
2022/08/29 00:06:39;;;;;;;9.97;9.13;;;18.10;99.90;;;;;;6248022;23;20381;-45
2022/08/29 00:09:05;;;;;;;10.13;9.23;;;18.10;99.90;;;;;;6248223;23;20199;-44
2022/08/29 00:11:31;;;;;;;10.57;9.57;;;18.00;99.90;;;;;;6248364;23;20676;-46
2022/08/29 00:13:58;;;;;;;10.47;9.47;;;18.00;99.90;;;;;;6248182;23;20370;-45
2022/08/29 00:16:23;;;;;;;10.63;9.70;;;18.00;99.90;;;;;;6248597;23;20395;-43
2022/08/29 00:18:49;;;;;;;10.13;9.23;;;18.00;99.90;;;;;;6248955;23;20664;-44
2022/08/29 00:21:15;;;;;;;10.60;9.57;;;18.00;99.90;;;;;;6248035;23;20154;-45
2022/08/29 00:23:43;;;;;;;9.27;8.53;;;17.90;99.90;;;;;;6249026;23;20137;-46
2022/08/29 00:26:09;;;;;;;9.77;8.97;;;17.90;99.90;;;;;;6247695;23;20433;-44
2022/08/29 00:28:34;;;;;;;9.13;8.33;;;17.90;99.90;;;;;;6249551;23;20656;-44
2022/08/29 00:31:00;;;;;;;10.23;9.20;;;18.00;99.90;;;;;;6249287;23;20148;-44
2022/08/29 00:33:26;;;;;;;10.50;9.60;;;18.00;99.90;;;;;;6248735;23;20438;-44
2022/08/29 00:35:52;;;;;;;10.27;9.47;;;17.90;99.90;;;;;;6248806;23;20527;-43
2022/08/29 00:38:18;;;;;;;9.70;8.80;;;17.90;99.90;;;;;;6249745;23;20357;-44
2022/08/29 00:40:47;;;;;;;9.90;9.10;;;17.90;99.90;;;;;;6248795;23;20218;-43
2022/08/29 00:43:13;;;;;;;9.33;8.50;;;17.90;99.90;;;;;;6249239;23;20158;-48
2022/08/29 00:45:45;;;;;;;9.97;9.07;;;17.80;99.90;;;;;;6249450;23;20704;-43
2022/08/29 00:48:14;;;;;;;9.50;8.70;;;17.80;99.90;;;;;;6248992;23;20385;-45
2022/08/29 00:50:41;;;;;;;9.60;8.80;;;17.80;99.90;;;;;;6246419;23;20472;-46
2022/08/29 00:53:10;;;;;;;10.17;9.23;;;17.80;99.90;;;;;;6247652;23;20622;-43
2022/08/29 00:55:38;;;;;;;9.13;8.33;;;17.90;99.90;;;;;;6249403;23;20407;-43
2022/08/29 00:58:08;;;;;;;9.33;8.43;;;17.80;99.90;;;;;;6246739;23;20365;-46
2022/08/29 01:00:34;;;;;;;10.50;9.60;;;17.90;99.90;;;;;;6247866;23;20385;-45
2022/08/29 01:03:01;;;;;;;9.00;8.30;;;17.90;99.90;;;;;;6247240;23;20747;-42
2022/08/29 01:05:27;;;;;;;11.63;9.60;;;17.90;99.90;;;;;;6248205;23;20429;-48
2022/08/29 01:07:53;;;;;;;10.00;9.00;;;17.80;99.90;;;;;;6248666;23;20361;-47
2022/08/29 01:13:04;;;;;;;9.33;8.53;;;17.80;99.90;;;;;;6247694;23;20203;-43
2022/08/29 01:15:31;;;;;;;8.80;8.10;;;17.80;99.90;;;;;;6246973;23;20385;-46
2022/08/29 01:17:58;;;;;;;9.47;8.67;;;17.70;99.90;;;;;;6246682;23;20653;-43
2022/08/29 01:20:33;;;;;;;10.20;9.30;;;17.70;99.90;;;;;;6247540;23;20354;-46
2022/08/29 01:23:08;;;;;;;9.73;8.80;;;17.70;99.90;;;;;;6248533;23;20388;-45
2022/08/29 01:25:37;;;;;;;9.90;8.90;;;17.70;99.90;;;;;;6248531;23;20401;-43
2022/08/29 01:28:24;;;;;;;9.20;8.40;;;17.70;99.90;;;;;;6248906;23;20407;-45
2022/08/29 01:30:57;;;;;;;9.60;8.60;;;17.70;99.90;;;;;;6248440;23;20363;-43
2022/08/29 01:33:23;;;;;;;7.97;7.27;;;17.70;99.90;;;;;;6249635;23;20672;-44
2022/08/29 01:35:49;;;;;;;7.50;6.90;;;17.70;99.80;;;;;;6250253;22;20474;-43
2022/08/29 01:38:26;;;;;;;8.60;7.90;;;17.70;99.90;;;;;;6250389;23;20165;-44
2022/08/29 01:40:54;;;;;;;8.73;7.97;;;17.70;99.90;;;;;;6250646;23;20519;-43
2022/08/29 01:43:21;;;;;;;8.77;7.90;;;17.60;99.80;;;;;;6250868;23;20703;-43
2022/08/29 01:45:47;;;;;;;9.30;8.40;;;17.60;99.90;;;;;;6250502;23;20401;-44
2022/08/29 01:48:13;;;;;;;7.97;7.27;;;17.60;99.60;;;;;;6251234;23;20404;-43
2022/08/29 01:50:45;;;;;;;8.57;7.77;;;17.50;99.70;;;;;;6250661;23;20369;-45
2022/08/29 01:53:11;;;;;;;10.20;8.40;;;17.50;99.60;;;;;;6250738;23;20151;-45
2022/08/29 01:55:37;;;;;;;8.90;8.00;;;17.50;99.80;;;;;;6249396;23;20790;-46
2022/08/29 01:58:04;;;;;;;8.60;7.80;;;17.50;99.90;;;;;;6250255;23;20730;-46
2022/08/29 02:00:30;;;;;;;8.70;7.90;;;17.40;99.90;;;;;;6250073;23;20373;-42
2022/08/29 02:02:59;;;;;;;9.57;8.77;;;17.40;99.90;;;;;;6248627;23;20404;-43
2022/08/29 02:05:25;;;;;;;8.73;7.93;;;17.40;99.80;;;;;;6250279;23;20658;-43
2022/08/29 02:07:50;;;;;;;8.30;7.50;;;17.40;99.90;;;;;;6250322;23;20383;-42
2022/08/29 02:10:17;;;;;;;7.80;7.10;;;17.40;99.30;;;;;;6250331;23;20358;-42
2022/08/29 02:12:43;;;;;;;8.33;7.63;;;17.20;99.70;;;;;;6249530;23;20150;-43
2022/08/29 02:15:09;;;;;;;8.70;7.83;;;17.20;99.90;;;;;;6250161;23;20367;-45
2022/08/29 02:17:36;;;;;;;10.57;9.60;;;17.20;99.90;;;;;;6250810;23;20160;-42
2022/08/29 02:20:05;;;;;;;8.33;7.63;;;17.10;99.90;;;;;;6250412;23;20353;-43
2022/08/29 02:22:30;;;;;;;8.77;7.80;;;17.20;99.90;;;;;;6249579;23;20384;-44
2022/08/29 02:24:56;;;;;;;8.77;7.87;;;17.20;99.90;;;;;;6250038;23;20420;-46
2022/08/29 02:27:21;;;;;;;8.73;7.77;;;17.20;99.90;;;;;;6250836;23;20145;-45
2022/08/29 02:29:47;;;;;;;8.60;7.83;;;17.20;99.90;;;;;;6250211;23;20151;-44
2022/08/29 02:32:14;;;;;;;9.17;7.73;;;17.20;99.90;;;;;;6249342;23;20137;-45
2022/08/29 02:34:43;;;;;;;8.07;7.37;;;17.20;99.90;;;;;;6248466;23;20581;-43
2022/08/29 02:37:08;;;;;;;8.67;7.87;;;17.20;99.90;;;;;;6248364;23;20353;-43
2022/08/29 02:39:34;;;;;;;9.00;8.10;;;17.20;99.90;;;;;;6249101;23;20443;-43
2022/08/29 02:42:00;;;;;;;7.13;6.53;;;17.20;99.90;;;;;;6249037;23;20136;-42
2022/08/29 02:44:26;;;;;;;8.37;7.67;;;17.20;99.90;;;;;;6248365;23;20199;-43
2022/08/29 02:46:51;;;;;;;8.37;7.67;;;17.20;99.90;;;;;;6250069;23;20356;-44
2022/08/29 02:49:17;;;;;;;8.23;7.53;;;17.20;99.90;;;;;;6250040;23;20547;-44
2022/08/29 02:51:42;;;;;;;7.90;7.20;;;17.20;99.90;;;;;;6250187;23;20142;-43
2022/08/29 02:54:08;;;;;;;8.33;7.53;;;17.20;99.90;;;;;;6249450;23;20146;-46
2022/08/29 02:56:34;;;;;;;9.03;8.27;;;17.10;99.80;;;;;;6249413;23;20140;-44
2022/08/29 02:59:00;;;;;;;8.47;7.70;;;17.10;99.90;;;;;;6249337;23;20132;-42
2022/08/29 03:01:26;;;;;;;9.27;8.33;;;17.10;99.90;;;;;;6249543;23;20126;-43
2022/08/29 03:03:52;;;;;;;8.60;7.80;;;17.10;99.60;;;;;;6248420;23;20361;-46
2022/08/29 03:06:19;;;;;;;8.73;7.93;;;17.10;99.20;;;;;;6248212;23;20410;-43
2022/08/29 03:08:45;;;;;;;8.53;7.73;;;16.90;99.60;;;;;;6247157;23;20364;-43
2022/08/29 03:11:10;;;;;;;8.50;7.70;;;16.90;99.90;;;;;;6247523;23;20380;-46
2022/08/29 03:13:36;;;;;;;9.03;8.23;;;16.90;99.90;;;;;;6246215;23;20518;-43
2022/08/29 03:16:03;;;;;;;8.70;7.90;;;16.90;99.90;;;;;;6246950;23;20540;-43
2022/08/29 03:18:29;;;;;;;8.47;7.67;;;16.90;99.90;;;;;;6246183;23;20446;-43
2022/08/29 03:20:54;;;;;;;8.77;8.07;;;16.90;99.90;;;;;;6247732;23;20449;-44
2022/08/29 03:23:20;;;;;;;7.63;6.97;;;16.80;99.90;;;;;;6249697;23;20427;-45
2022/08/29 03:25:46;;;;;;;7.83;7.13;;;16.90;99.90;;;;;;6248954;23;20239;-42
2022/08/29 03:28:11;;;;;;;9.13;8.23;;;16.80;99.90;;;;;;6249732;23;20353;-43
2022/08/29 03:30:37;;;;;;;9.50;8.17;;;16.90;99.90;;;;;;6249760;23;20514;-45
2022/08/29 03:33:04;;;;;;;8.90;7.80;;;16.80;99.90;;;;;;6248577;23;20577;-43
2022/08/29 03:35:30;;;;;;;8.87;8.10;;;16.70;99.80;;;;;;6247261;23;20209;-44
2022/08/29 03:37:56;;;;;;;8.80;8.00;;;16.70;99.80;;;;;;6247164;23;20364;-44
2022/08/29 03:40:22;;;;;;;9.50;8.50;;;16.70;99.90;;;;;;6247071;23;20404;-43
2022/08/29 03:42:47;;;;;;;9.07;8.17;;;16.60;99.90;;;;;;6246998;23;20369;-44
2022/08/29 03:45:15;;;;;;;8.70;7.90;;;16.60;99.90;;;;;;6247185;23;20425;-43
2022/08/29 03:47:41;;;;;;;8.80;8.07;;;16.50;99.90;;;;;;6247378;23;20161;-42
2022/08/29 03:50:07;;;;;;;9.00;8.23;;;16.50;99.90;;;;;;6248579;23;20466;-44
2022/08/29 03:52:33;;;;;;;8.73;7.93;;;16.60;99.90;;;;;;6248467;23;20371;-43
2022/08/29 03:54:59;;;;;;;8.90;8.10;;;16.60;99.90;;;;;;6247597;23;20389;-43
2022/08/29 03:57:25;;;;;;;8.20;7.50;;;16.60;99.90;;;;;;6246780;23;20464;-44
2022/08/29 03:59:50;;;;;;;8.83;8.13;;;16.60;99.90;;;;;;6247373;23;20742;-46
2022/08/29 04:02:17;;;;;;;8.40;7.70;;;16.60;99.90;;;;;;6245890;23;20138;-46
2022/08/29 04:07:28;;;;;;;9.57;8.10;;;16.70;99.90;;;;;;6245969;23;20358;-46
2022/08/29 04:09:53;;;;;;;7.57;6.90;;;16.70;99.90;;;;;;6247260;23;20785;-46
2022/08/29 04:12:19;;;;;;;7.87;7.27;;;16.70;99.90;;;;;;6246196;23;20135;-43
2022/08/29 04:14:45;;;;;;;10.20;9.20;;;16.70;99.90;;;;;;6247338;23;20484;-44
2022/08/29 04:17:11;;;;;;;8.93;8.23;;;16.70;99.90;;;;;;6245887;23;20515;-43
2022/08/29 04:19:37;;;;;;;8.50;7.70;;;16.70;99.90;;;;;;6246977;23;20159;-45
2022/08/29 04:22:04;;;;;;;8.20;7.50;;;16.60;99.90;;;;;;6248844;23;20807;-46
2022/08/29 04:24:34;;;;;;;9.67;8.67;;;16.60;99.90;;;;;;6247977;23;20863;-45
2022/08/29 04:27:00;;;;;;;8.70;7.90;;;16.60;99.90;;;;;;6248434;23;20412;-44
2022/08/29 04:29:26;;;;;;;9.27;8.47;;;16.60;99.90;;;;;;6248152;23;20361;-45
2022/08/29 04:31:52;;;;;;;8.70;8.00;;;16.60;99.90;;;;;;6248799;23;20385;-43
2022/08/29 04:34:19;;;;;;;8.43;7.73;;;16.60;99.90;;;;;;6245478;23;20436;-43
2022/08/29 04:36:46;;;;;;;13.47;9.63;;;16.60;99.90;;;;;;6247772;23;20391;-46
2022/08/29 04:39:12;;;;;;;9.17;8.37;;;16.70;99.90;;;;;;6246631;23;20621;-46
2022/08/29 04:41:39;;;;;;;8.20;7.50;;;16.70;99.90;;;;;;6245075;22;20391;-44
2022/08/29 04:44:07;;;;;;;8.93;8.07;;;16.80;99.70;;;;;;6245312;23;20365;-44
2022/08/29 04:46:33;;;;;;;8.90;8.10;;;16.90;99.60;;;;;;6245733;23;20404;-43
2022/08/29 04:48:58;;;;;;;9.40;8.60;;;16.90;99.70;;;;;;6245139;23;20361;-45
2022/08/29 04:51:24;;;;;;;8.00;7.30;;;16.90;99.60;;;;;;6245145;23;20428;-44
2022/08/29 04:53:50;;;;;;;8.63;7.83;;;17.00;99.60;;;;;;6244828;23;20506;-44
2022/08/29 04:56:17;;;;;;;8.57;7.77;;;17.00;99.60;;;;;;6243701;23;20158;-43
2022/08/29 04:58:43;;;;;;;9.40;8.50;;;17.10;99.60;;;;;;6246283;23;20359;-45
2022/08/29 05:01:15;;;;;;;8.77;8.07;;;17.20;99.50;;;;;;6243891;23;20370;-46
2022/08/29 05:03:41;;;;;;;9.03;8.23;;;17.20;99.30;;;;;;6246343;22;20371;-44
2022/08/29 05:06:09;;;;;;;8.90;8.10;;;17.20;99.20;;;;;;6245713;23;20491;-44
2022/08/29 05:08:37;;;;;;;8.83;8.10;;;17.30;99.10;;;;;;6246666;23;20136;-44
2022/08/29 05:11:05;;;;;;;8.63;7.93;;;17.30;99.00;;;;;;6245726;23;20360;-45
2022/08/29 05:13:32;;;;;;;8.73;7.93;;;17.30;98.80;;;;;;6246923;23;20748;-45
2022/08/29 05:15:58;;;;;;;8.97;7.90;;;17.20;98.70;;;;;;6246245;23;20374;-44
2022/08/29 05:18:24;;;;;;;7.80;7.10;;;17.30;98.90;;;;;;6245998;23;20365;-42
2022/08/29 05:20:49;;;;;;;8.80;8.00;;;17.30;99.00;;;;;;6245478;23;20360;-43
2022/08/29 05:23:16;;;;;;;9.50;8.60;;;17.30;98.90;;;;;;6246399;23;20157;-44
2022/08/29 05:25:43;;;;;;;8.87;7.97;;;17.40;98.80;;;;;;6245038;23;20558;-48
2022/08/29 05:28:10;;;;;;;8.17;7.37;;;17.40;98.50;;;;;;6245278;23;20412;-42
2022/08/29 05:30:37;;;;;;;9.13;8.27;;;17.40;98.60;;;;;;6241650;23;20365;-43
2022/08/29 05:33:04;;;;;;;8.73;8.03;;;17.50;98.60;;;;;;6244292;23;20377;-45
2022/08/29 05:35:31;;;;;;;7.70;7.10;;;17.50;98.30;;;;;;6246132;23;20448;-45
2022/08/29 05:37:56;;;;;;;8.60;7.90;;;17.50;98.40;;;;;;6245754;23;20393;-47
2022/08/29 05:40:22;;;;;;;9.30;8.50;;;17.50;98.50;;;;;;6244683;23;20354;-44
2022/08/29 05:42:47;;;;;;;9.87;8.97;;;17.60;98.50;;;;;;6246805;23;20189;-44
2022/08/29 05:45:13;;;;;;;9.33;8.53;;;17.60;98.40;;;;;;6244658;23;20162;-45
2022/08/29 05:47:39;;;;;;;9.00;8.17;;;17.70;98.20;;;;;;6243331;23;20155;-43
2022/08/29 05:50:06;;;;;;;10.20;9.20;;;17.70;98.10;;;;;;6243135;23;20139;-45
2022/08/29 05:52:32;;;;;;;10.40;9.60;;;17.70;97.90;;;;;;6245474;23;20176;-47
2022/08/29 05:54:57;;;;;;;12.30;11.30;;;17.80;97.90;;;;;;6243074;23;20402;-45
2022/08/29 05:57:23;;;;;;;10.60;9.80;;;17.90;97.90;;;;;;6245662;23;20285;-44
2022/08/29 05:59:50;;;;;;;11.10;10.00;;;17.90;97.70;;;;;;6243859;23;20144;-44
2022/08/29 06:02:17;;;;;;;10.90;10.00;;;17.80;97.60;;;;;;6244620;23;20157;-45
2022/08/29 06:04:43;;;;;;;10.30;9.40;;;17.70;97.90;;;;;;6243596;23;20495;-46
2022/08/29 06:07:10;;;;;;;11.20;10.20;;;17.70;98.10;;;;;;6245227;23;20364;-43
2022/08/29 06:09:37;;;;;;;10.77;9.83;;;17.80;98.40;;;;;;6243843;23;20213;-43
2022/08/29 06:12:03;;;;;;;11.63;10.53;;;17.90;98.10;;;;;;6246354;23;20670;-44
2022/08/29 06:14:29;;;;;;;12.13;11.03;;;17.90;97.50;;;;;;6246145;23;20384;-42
2022/08/29 06:16:55;;;;;;;10.53;9.63;;;17.90;97.80;;;;;;6246108;23;20357;-44
2022/08/29 06:19:21;;;;;;;10.13;9.23;;;17.90;98.00;;;;;;6246620;23;20202;-44
2022/08/29 06:21:47;;;;;;;9.70;8.80;;;18.00;98.10;;;;;;6245568;23;20139;-42
2022/08/29 06:24:13;;;;;;;11.00;9.93;;;18.10;98.30;;;;;;6244327;23;20159;-44
2022/08/29 06:26:39;;;;;;;12.00;10.93;;;18.30;98.10;;;;;;6246373;23;20363;-44
2022/08/29 06:29:07;;;;;;;14.00;12.67;;;18.50;97.60;;;;;;6244044;23;20399;-44
2022/08/29 06:31:33;;;;;;;12.20;10.97;;;18.60;97.00;;;;;;6243162;23;20141;-45
2022/08/29 06:34:00;;;;;;;11.73;10.63;;;18.60;97.00;;;;;;6244780;23;20436;-42
2022/08/29 06:36:27;;;;;;;10.90;9.80;;;18.70;97.40;;;;;;6245363;23;20383;-44
2022/08/29 06:38:57;;;;;;;11.13;10.17;;;18.80;97.20;;;;;;6247978;22;20384;-43
2022/08/29 06:41:24;;;;;;;11.50;10.47;;;19.00;97.00;;;;;;6246184;23;20369;-44
2022/08/29 06:43:51;;;;;;;11.73;10.53;;;19.10;96.90;;;;;;6245866;23;20523;-44
2022/08/29 06:46:26;;;;;;;10.80;9.90;;;19.30;96.80;;;;;;6246519;23;20838;-44
2022/08/29 06:48:52;;;;;;;10.70;9.80;;;19.50;96.30;;;;;;6247821;23;20356;-49
2022/08/29 06:51:18;;;;;;;10.83;9.93;;;19.70;96.20;;;;;;6248556;23;20415;-44
2022/08/29 06:53:44;;;;;;;11.90;10.80;;;20.00;95.90;;;;;;6248291;23;20395;-45
2022/08/29 06:56:10;;;;;;;11.10;10.03;;;20.20;95.30;;;;;;6244971;23;20389;-45
2022/08/29 06:58:36;;;;;;;10.60;9.70;;;20.40;94.50;;;;;;6247556;23;20221;-45
2022/08/29 07:01:06;;;;;;;12.37;11.10;;;20.40;94.60;;;;;;6243257;23;20433;-43
2022/08/29 07:03:32;;;;;;;13.00;11.03;;;20.40;94.50;;;;;;6245770;23;20503;-44
2022/08/29 07:05:57;;;;;;;11.83;10.73;;;20.60;94.30;;;;;;6246425;23;20408;-45
2022/08/29 07:08:23;;;;;;;11.50;10.40;;;20.60;94.20;;;;;;6245985;23;20437;-44
2022/08/29 07:10:49;;;;;;;12.57;11.37;;;20.70;94.40;;;;;;6245609;23;20219;-45
2022/08/29 07:13:14;;;;;;;11.73;10.73;;;20.90;94.30;;;;;;6244518;23;20172;-43
2022/08/29 07:15:40;;;;;;;14.43;11.90;;;21.10;94.10;;;;;;6244581;23;20161;-43
2022/08/29 07:18:06;;;;;;;11.90;10.90;;;21.30;93.60;;;;;;6244899;23;20153;-43
2022/08/29 07:20:33;;;;;;;10.70;9.70;;;21.20;93.50;;;;;;6243758;23;20756;-45
2022/08/29 07:22:59;;;;;;;11.60;10.60;;;21.20;93.90;;;;;;6243478;23;20169;-48
2022/08/29 07:25:26;;;;;;;13.20;12.00;;;21.20;93.80;;;;;;6243765;23;20841;-46
2022/08/29 07:27:52;;;;;;;11.57;10.63;;;20.90;93.90;;;;;;6246107;23;20628;-43
2022/08/29 07:30:19;;;;;;;11.73;10.63;;;20.80;94.50;;;;;;6248278;23;20351;-46
2022/08/29 07:32:45;;;;;;;11.10;10.10;;;21.00;94.70;;;;;;6246445;23;20443;-45
2022/08/29 07:35:12;;;;;;;11.90;9.90;;;21.40;94.70;;;;;;6245713;23;20423;-44
2022/08/29 07:37:38;;;;;;;9.60;8.80;;;21.70;94.40;;;;;;6244594;23;20416;-46
2022/08/29 07:40:05;;;;;;;16.63;10.10;;;22.10;93.60;;;;;;6245394;23;20741;-47
2022/08/29 07:42:33;;;;;;;13.60;11.30;;;22.40;92.90;;;;;;6244334;23;20414;-47
2022/08/29 07:44:58;;;;;;;11.90;10.70;;;22.70;92.20;;;;;;6246347;23;20741;-44
2022/08/29 07:47:25;;;;;;;9.63;8.73;;;22.70;91.90;;;;;;6244971;23;20414;-45
2022/08/29 07:49:51;;;;;;;10.97;9.97;;;22.90;91.50;;;;;;6246069;23;20129;-44
2022/08/29 07:52:17;;;;;;;10.30;9.30;;;23.20;91.60;;;;;;6243887;23;20389;-48
2022/08/29 07:54:43;;;;;;;11.57;10.10;;;23.50;90.90;;;;;;6242566;23;20391;-45
2022/08/29 07:57:09;;;;;;;10.63;9.30;;;23.80;90.60;;;;;;6244195;23;20489;-45
2022/08/29 07:59:34;;;;;;;9.00;8.10;;;24.20;89.10;;;;;;6243474;23;20140;-47
2022/08/29 08:02:00;;;;;;;10.50;9.50;;;24.50;88.50;;;;;;6242509;23;20189;-44
2022/08/29 08:04:26;;;;;;;8.70;7.80;;;24.80;87.60;;;;;;6242604;23;20137;-47
2022/08/29 08:06:51;;;;;;;9.00;8.30;;;25.10;85.90;;;;;;6216614;23;20441;-48
2022/08/29 08:09:17;;;;;;;9.40;8.60;;;25.30;85.40;;;;;;6241978;23;20480;-45
2022/08/29 08:11:43;;;;;;;8.87;8.10;;;25.50;83.70;;;;;;6243626;23;20433;-49
2022/08/29 08:14:08;;;;;;;9.10;8.30;;;25.70;82.50;;;;;;6241953;23;20134;-47
2022/08/29 08:16:34;;;;;;;7.37;6.77;;;25.90;81.80;;;;;;6245362;23;20157;-47
2022/08/29 08:19:00;;;;;;;8.70;8.00;;;26.20;76.20;;;;;;6245950;23;20138;-45
2022/08/29 08:21:26;;;;;;;8.33;7.63;;;26.30;75.10;;;;;;6244128;23;20403;-45
2022/08/29 08:23:52;;;;;;;8.53;7.83;;;26.10;75.00;;;;;;6245570;23;20428;-45
2022/08/29 08:26:18;;;;;;;9.40;8.60;;;26.20;75.60;;;;;;6242379;23;20434;-47
2022/08/29 08:28:46;;;;;;;9.13;8.43;;;26.40;74.50;;;;;;6245258;23;20366;-45
2022/08/29 08:31:13;;;;;;;8.03;7.33;;;26.30;73.40;;;;;;6217920;23;20792;-44
2022/08/29 08:33:39;;;;;;;7.27;6.67;;;26.00;73.90;;;;;;6243962;23;20372;-43
2022/08/29 08:36:19;;;;;;;8.43;7.73;;;25.90;74.90;;;;;;6244774;23;20437;-43
2022/08/29 08:38:45;;;;;;;8.03;7.27;;;25.90;74.90;;;;;;6245253;23;20407;-43
2022/08/29 08:41:43;;;;;;;8.33;7.53;;;26.00;73.70;;;;;;6241403;23;20485;-44
2022/08/29 08:44:36;;;;;;;7.23;6.50;;;26.20;73.30;;;;;;6243711;23;20389;-45
2022/08/29 08:47:05;;;;;;;7.70;7.00;;;26.30;71.90;;;;;;6243169;23;20441;-46
2022/08/29 08:49:31;;;;;;;9.20;6.80;;;26.40;71.60;;;;;;6243584;23;20383;-47
2022/08/29 08:52:01;;;;;;;8.33;7.63;;;26.60;72.60;;;;;;6242380;23;20386;-47
2022/08/29 08:54:32;;;;;;;7.90;7.17;;;26.80;70.20;;;;;;6242664;23;20137;-46
2022/08/29 08:57:07;;;;;;;7.70;7.10;;;27.00;69.60;;;;;;6244747;23;20764;-43
2022/08/29 08:59:41;;;;;;;14.50;7.80;;;27.20;68.10;;;;;;6247828;23;20352;-45
2022/08/29 09:02:34;;;;;;;7.93;7.23;;;27.50;68.00;;;;;;6244052;23;20609;-46
2022/08/29 09:05:35;;;;;;;8.60;7.17;;;27.60;64.40;;;;;;6245385;23;20905;-46
2022/08/29 09:08:29;;;;;;;6.50;5.93;;;27.70;63.50;;;;;;6210770;23;20796;-47
2022/08/29 09:11:10;;;;;;;7.70;7.00;;;28.00;63.70;;;;;;6243568;23;20353;-48
2022/08/29 09:13:59;;;;;;;6.60;6.10;;;28.30;62.80;;;;;;6239970;23;20346;-46
2022/08/29 09:16:33;;;;;;;7.67;7.00;;;28.70;60.40;;;;;;6243443;23;20346;-48
2022/08/29 09:19:06;;;;;;;6.83;6.23;;;29.30;60.00;;;;;;6242191;23;20447;-45
2022/08/29 09:21:38;;;;;;;7.23;6.63;;;29.90;59.70;;;;;;6239311;23;20755;-46
2022/08/29 09:24:07;;;;;;;7.77;6.97;;;30.30;55.40;;;;;;6238127;23;20356;-47
2022/08/29 09:26:33;;;;;;;7.63;6.40;;;30.20;54.20;;;;;;6214799;23;20575;-46
2022/08/29 09:28:59;;;;;;;6.80;6.10;;;29.50;53.90;;;;;;6240981;23;20374;-46
2022/08/29 09:31:34;;;;;;;6.90;6.30;;;28.90;55.10;;;;;;6242091;23;20343;-45
2022/08/29 09:34:01;;;;;;;8.53;7.33;;;28.50;55.80;;;;;;6242178;23;20668;-48
2022/08/29 09:36:43;;;;;;;7.20;6.50;;;28.30;55.90;;;;;;6240610;23;20662;-46
2022/08/29 09:39:22;;;;;;;7.60;6.80;;;28.30;55.70;;;;;;6241365;23;20359;-46
2022/08/29 09:42:16;;;;;;;7.47;6.67;;;28.60;56.10;;;;;;6241062;23;20379;-47
2022/08/29 09:44:55;;;;;;;6.50;5.90;;;29.00;54.80;;;;;;6234413;23;20428;-46
2022/08/29 09:47:26;;;;;;;8.23;6.77;;;29.40;55.50;;;;;;6242221;23;20655;-44
2022/08/29 09:50:11;;;;;;;7.30;6.60;;;29.40;53.50;;;;;;6242248;23;20435;-47
2022/08/29 09:52:56;;;;;;;7.67;6.97;;;29.20;53.80;;;;;;6244050;23;20356;-44
2022/08/29 09:55:33;;;;;;;6.50;5.90;;;28.80;53.80;;;;;;6247409;23;20794;-44
2022/08/29 09:58:23;;;;;;;8.20;6.83;;;28.60;53.90;;;;;;6242884;23;20369;-46
2022/08/29 10:01:09;;;;;;;7.30;6.70;;;28.30;54.80;;;;;;6231651;22;20388;-45
2022/08/29 10:03:41;;;;;;;7.30;6.10;;;28.80;55.20;;;;;;6242171;23;20387;-45
2022/08/29 10:06:23;;;;;;;7.53;6.83;;;29.60;54.50;;;;;;6245531;23;20420;-47
2022/08/29 10:09:03;;;;;;;6.97;6.40;;;30.50;52.10;;;;;;6246530;23;20400;-47
2022/08/29 10:11:55;;;;;;;8.00;7.20;;;31.10;51.90;;;;;;6245470;23;20362;-43
2022/08/29 10:14:37;;;;;;;6.97;6.37;;;31.80;50.90;;;;;;6245339;23;20647;-42
2022/08/29 10:19:47;;;;;;;6.70;6.00;;;33.00;49.20;;;;;;6244823;23;20420;-44
2022/08/29 10:22:13;;;;;;;6.80;6.20;;;33.40;47.10;;;;;;6245081;23;20464;-44
2022/08/29 10:25:07;;;;;;;6.80;6.20;;;33.80;46.70;;;;;;6248729;23;20244;-45
2022/08/29 10:27:54;;;;;;;10.87;6.70;;;34.10;45.40;;;;;;6247164;23;20137;-45
2022/08/29 10:30:22;;;;;;;7.20;6.50;;;33.70;44.70;;;;;;6247281;23;20346;-45
2022/08/29 10:33:09;;;;;;;6.90;6.30;;;33.80;45.20;;;;;;6243038;23;20609;-47
2022/08/29 10:36:18;;;;;;;7.67;6.07;;;34.00;44.30;;;;;;6244489;23;20851;-45
2022/08/29 10:38:47;;;;;;;7.47;6.77;;;33.90;43.50;;;;;;6232201;23;20680;-47
2022/08/29 10:41:23;;;;;;;8.07;6.63;;;33.80;43.00;;;;;;6240114;23;20370;-45
2022/08/29 10:43:58;;;;;;;7.43;6.90;;;33.50;43.50;;;;;;6241097;23;20360;-45
2022/08/29 10:46:54;;;;;;;9.60;5.63;;;33.30;43.30;;;;;;6243352;23;20902;-45
2022/08/29 10:49:43;;;;;;;6.93;6.43;;;32.90;44.20;;;;;;6241075;23;20434;-45
2022/08/29 10:52:29;;;;;;;6.80;6.20;;;32.80;44.20;;;;;;6241182;23;20373;-44
2022/08/29 10:55:22;;;;;;;6.90;5.77;;;32.80;43.50;;;;;;6242554;23;20359;-45
2022/08/29 10:58:02;;;;;;;7.30;6.60;;;33.00;42.30;;;;;;6242959;23;20383;-44
2022/08/29 11:00:45;;;;;;;6.70;6.10;;;32.70;42.90;;;;;;6239491;23;20343;-46
2022/08/29 11:03:37;;;;;;;6.90;6.30;;;32.60;43.20;;;;;;6242557;23;20396;-44
2022/08/29 11:06:25;;;;;;;7.57;5.67;;;32.50;42.30;;;;;;6242175;23;20427;-48
2022/08/29 11:09:19;;;;;;;6.17;5.73;;;32.50;43.20;;;;;;6215494;23;20393;-47
2022/08/29 11:12:27;;;;;;;8.03;7.43;;;32.00;42.90;;;;;;6242112;23;20443;-50
2022/08/29 11:14:57;;;;;;;7.73;7.03;;;31.00;44.50;;;;;;6160848;23;20770;-48
2022/08/29 11:17:28;;;;;;;6.87;6.37;;;30.40;45.90;;;;;;6242953;23;20468;-44
2022/08/29 11:20:10;;;;;;;6.33;5.83;;;30.50;46.40;;;;;;6245272;22;20390;-48
2022/08/29 11:22:46;;;;;;;9.17;6.80;;;31.40;46.10;;;;;;6243723;23;20418;-44
2022/08/29 11:25:14;;;;;;;7.73;7.03;;;32.20;46.80;;;;;;6244678;23;20412;-43
2022/08/29 11:27:50;;;;;;;9.00;8.20;;;32.80;45.00;;;;;;6245760;23;20365;-45
2022/08/29 11:30:48;;;;;;;8.70;7.87;;;32.80;44.10;;;;;;6218857;23;20662;-44
2022/08/29 11:33:26;;;;;;;6.13;5.63;;;32.30;44.70;;;;;;6245467;23;20494;-43
2022/08/29 11:36:25;;;;;;;7.60;6.90;;;31.80;45.50;;;;;;6219359;23;20533;-44
2022/08/29 11:39:23;;;;;;;7.07;6.47;;;32.00;45.50;;;;;;6243817;23;20790;-44
2022/08/29 11:41:50;;;;;;;8.07;7.37;;;33.00;44.80;;;;;;6240655;23;20347;-44
2022/08/29 11:44:26;;;;;;;7.80;7.10;;;33.90;42.90;;;;;;6244024;23;20382;-46
2022/08/29 11:46:52;;;;;;;8.30;7.60;;;33.20;42.40;;;;;;6245063;23;20766;-45
2022/08/29 11:49:25;;;;;;;7.90;7.30;;;31.90;43.90;;;;;;6242503;23;20663;-45
2022/08/29 11:51:57;;;;;;;7.37;6.77;;;31.00;45.60;;;;;;6245655;23;20389;-45
2022/08/29 11:54:24;;;;;;;7.23;6.53;;;31.20;46.00;;;;;;6248095;23;20361;-44
2022/08/29 11:56:59;;;;;;;7.33;6.70;;;32.20;44.90;;;;;;6246521;23;20494;-43
2022/08/29 11:59:44;;;;;;;6.57;6.07;;;32.00;44.30;;;;;;6245968;23;20400;-46
2022/08/29 12:02:39;;;;;;;8.27;7.47;;;32.90;44.60;;;;;;6245812;23;20359;-44
2022/08/29 12:05:16;;;;;;;7.27;6.63;;;33.50;43.70;;;;;;6243308;22;20399;-48
2022/08/29 12:07:49;;;;;;;7.23;6.63;;;33.60;42.80;;;;;;6245921;23;20650;-46
2022/08/29 12:10:22;;;;;;;6.80;6.30;;;33.20;43.70;;;;;;6243278;23;20385;-45
2022/08/29 12:12:53;;;;;;;7.40;6.80;;;32.60;44.40;;;;;;6245041;23;20379;-45
2022/08/29 12:15:31;;;;;;;9.63;6.70;;;32.10;44.50;;;;;;6243807;23;20377;-45
2022/08/29 12:18:29;;;;;;;7.70;7.00;;;32.40;45.20;;;;;;6246589;23;20783;-48
2022/08/29 12:20:55;;;;;;;8.87;7.33;;;33.50;43.10;;;;;;6237104;23;20391;-46
2022/08/29 12:23:29;;;;;;;6.73;6.23;;;34.10;41.90;;;;;;6246843;23;20409;-46
2022/08/29 12:25:56;;;;;;;7.20;6.50;;;33.90;42.00;;;;;;6248248;23;20418;-47
2022/08/29 12:28:46;;;;;;;7.37;6.80;;;34.50;42.50;;;;;;6245081;23;20358;-44
2022/08/29 12:31:38;;;;;;;6.70;6.10;;;35.50;41.30;;;;;;6245632;23;20343;-45
2022/08/29 12:34:25;;;;;;;7.50;6.77;;;35.60;39.80;;;;;;6234015;23;20414;-46
2022/08/29 12:37:24;;;;;;;7.63;6.97;;;35.00;40.00;;;;;;6244761;23;20384;-46
2022/08/29 12:40:11;;;;;;;6.50;5.93;;;34.10;40.90;;;;;;6217089;23;20380;-47
2022/08/29 12:42:46;;;;;;;8.20;7.40;;;33.30;41.00;;;;;;6242593;23;20438;-46
2022/08/29 12:45:17;;;;;;;6.97;6.37;;;32.70;41.80;;;;;;6237903;23;20440;-47
2022/08/29 12:47:49;;;;;;;6.50;6.00;;;32.20;43.00;;;;;;6242703;23;20355;-44
2022/08/29 12:50:20;;;;;;;7.47;6.77;;;31.90;42.70;;;;;;6240479;23;20354;-44
2022/08/29 12:53:05;;;;;;;7.93;7.13;;;31.80;42.90;;;;;;6243729;23;20392;-46
2022/08/29 12:55:38;;;;;;;6.63;6.13;;;32.50;43.60;;;;;;6243671;23;20672;-45
2022/08/29 12:58:04;;;;;;;6.57;5.97;;;33.30;43.20;;;;;;6244732;23;20793;-45
2022/08/29 13:00:31;;;;;;;6.80;6.30;;;33.50;41.90;;;;;;6242878;23;20859;-51
2022/08/29 13:03:11;;;;;;;7.10;6.50;;;32.60;41.40;;;;;;6241017;23;20434;-45
2022/08/29 13:05:39;;;;;;;7.83;7.13;;;32.00;42.50;;;;;;6245483;23;20385;-48
2022/08/29 13:08:25;;;;;;;7.60;6.83;;;31.50;43.10;;;;;;6244423;23;20350;-45
2022/08/29 13:10:57;;;;;;;7.30;6.70;;;31.20;43.80;;;;;;6242492;23;20334;-48